Time;durP1;ratioP1;P1;durP2;ratioP2;P2;SDS_P1;SDS_P2;PMS_P1;PMS_P2;Temp;Humidity;BMP_temperature;BMP_pressure;BME280_temperature;BME280_humidity;BME280_pressure;Samples;Min_cycle;Max_cycle;Signal;HPM_P1;HPM_P2
2023/04/02 00:00:14;;;;;;;;;;;6.90;99.90;;;;;;5035743;28;20253;-74
2023/04/02 00:02:47;;;;;;;;;;;6.90;99.90;;;;;;5035899;28;20376;-74
2023/04/02 00:05:18;;;;;;;;;;;6.90;99.90;;;;;;5053712;28;19959;-74
2023/04/02 00:07:50;;;;;;;;;;;6.80;99.90;;;;;;5053533;28;20383;-74
2023/04/02 00:10:26;;;;;;;;;;;6.80;99.90;;;;;;5035972;28;19905;-74
2023/04/02 00:13:03;;;;;;;;;;;6.90;99.90;;;;;;5053523;28;19908;-76
2023/04/02 00:15:29;;;;;;;;;;;6.90;99.90;;;;;;5054551;28;19967;-76
2023/04/02 00:17:55;;;;;;;;;;;6.80;99.90;;;;;;5036719;28;19904;-76
2023/04/02 00:20:21;;;;;;;;;;;6.80;99.90;;;;;;5039484;28;19904;-75
2023/04/02 00:22:47;;;;;;;;;;;6.80;99.90;;;;;;5039714;28;20299;-76
2023/04/02 00:25:13;;;;;;;;;;;6.80;99.90;;;;;;5039221;28;19999;-76
2023/04/02 00:27:41;;;;;;;;;;;6.80;99.90;;;;;;5039332;28;19995;-76
2023/04/02 00:30:07;;;;;;;;;;;6.80;99.90;;;;;;5057244;28;20375;-76
2023/04/02 00:32:34;;;;;;;;;;;6.80;99.90;;;;;;5057923;28;19904;-76
2023/04/02 00:35:00;;;;;;;;;;;6.70;99.90;;;;;;5057084;28;19912;-76
2023/04/02 00:37:26;;;;;;;;;;;6.80;99.90;;;;;;5038698;28;19904;-74
2023/04/02 00:39:59;;;;;;;;;;;6.80;99.90;;;;;;5056418;28;19909;-74
2023/04/02 00:42:25;;;;;;;;;;;6.70;99.90;;;;;;5038672;28;19928;-74
2023/04/02 00:44:53;;;;;;;;;;;6.80;99.90;;;;;;5056243;28;19905;-74
2023/04/02 00:47:20;;;;;;;;;;;7.10;99.90;;;;;;5038289;28;19909;-74
2023/04/02 00:49:47;;;;;;;;;;;6.70;99.90;;;;;;5056019;28;19919;-74
2023/04/02 00:52:15;;;;;;;;;;;6.70;99.90;;;;;;5056844;28;19905;-74
2023/04/02 00:54:49;;;;;;;;;;;6.80;99.90;;;;;;5038521;28;20363;-74
2023/04/02 00:57:24;;;;;;;;;;;6.70;99.90;;;;;;5038186;28;19905;-74
2023/04/02 00:59:53;;;;;;;;;;;6.70;99.90;;;;;;5056294;28;19904;-74
2023/04/02 01:02:25;;;;;;;;;;;6.70;99.90;;;;;;5038771;28;19911;-74
2023/04/02 01:04:56;;;;;;;;;;;6.60;99.90;;;;;;5056819;28;19904;-74
2023/04/02 01:07:46;;;;;;;;;;;6.60;99.90;;;;;;5037900;28;19926;-74
2023/04/02 01:10:18;;;;;;;;;;;6.60;99.90;;;;;;5056499;28;19909;-74
2023/04/02 01:12:48;;;;;;;;;;;6.60;99.90;;;;;;5037912;28;19916;-74
2023/04/02 01:15:26;;;;;;;;;;;6.50;99.90;;;;;;5056040;28;19905;-74
2023/04/02 01:17:53;;;;;;;;;;;6.50;99.90;;;;;;5055906;28;19909;-74
2023/04/02 01:20:51;;;;;;;;;;;6.50;99.90;;;;;;5038216;28;20455;-74
2023/04/02 01:23:22;;;;;;;;;;;6.50;99.90;;;;;;4994562;28;19912;-74
2023/04/02 01:26:11;;;;;;;;;;;7.70;99.90;;;;;;5037605;28;20360;-73
2023/04/02 01:28:55;;;;;;;;;;;6.50;99.90;;;;;;5055577;28;20420;-74
2023/04/02 01:31:21;;;;;;;;;;;6.50;99.90;;;;;;5036824;28;19915;-74
2023/04/02 01:33:46;;;;;;;;;;;6.50;99.90;;;;;;5055571;28;19995;-78
2023/04/02 01:36:26;;;;;;;;;;;6.50;99.90;;;;;;5038052;28;19985;-78
2023/04/02 01:39:11;;;;;;;;;;;6.40;99.90;;;;;;5056049;28;19908;-77
2023/04/02 01:41:45;;;;;;;;;;;6.40;99.90;;;;;;5038223;28;20010;-78
2023/04/02 01:44:26;;;;;;;;;;;6.40;99.90;;;;;;5038404;28;20335;-77
2023/04/02 01:46:51;;;;;;;;;;;6.40;99.90;;;;;;5038204;28;19914;-78
2023/04/02 01:49:18;;;;;;;;;;;6.40;99.90;;;;;;5037928;28;20360;-77
2023/04/02 01:51:45;;;;;;;;;;;6.40;99.90;;;;;;5055801;28;19904;-77
2023/04/02 01:54:12;;;;;;;;;;;6.40;99.90;;;;;;5037826;28;19958;-78
2023/04/02 01:56:39;;;;;;;;;;;6.40;99.90;;;;;;5055669;28;19904;-76
2023/04/02 01:59:05;;;;;;;;;;;6.40;99.90;;;;;;5037559;28;20275;-77
2023/04/02 02:01:35;;;;;;;;;;;6.30;99.90;;;;;;5037698;28;19905;-78
2023/04/02 02:04:00;;;;;;;;;;;6.30;99.90;;;;;;5037757;28;19905;-77
2023/04/02 02:06:26;;;;;;;;;;;6.30;99.90;;;;;;5055310;28;19916;-77
2023/04/02 02:09:03;;;;;;;;;;;6.40;99.90;;;;;;5037939;28;20429;-77
2023/04/02 02:11:30;;;;;;;;;;;6.30;99.90;;;;;;5055839;28;20414;-77
2023/04/02 02:13:56;;;;;;;;;;;6.30;99.90;;;;;;5037726;28;19926;-77
2023/04/02 02:16:22;;;;;;;;;;;6.20;99.90;;;;;;5037609;28;20352;-77
2023/04/02 02:18:49;;;;;;;;;;;6.20;99.90;;;;;;5055575;28;19912;-78
2023/04/02 02:21:37;;;;;;;;;;;6.20;99.90;;;;;;5037491;28;19909;-77
2023/04/02 02:24:03;;;;;;;;;;;6.20;99.90;;;;;;5055386;28;19905;-77
2023/04/02 02:26:32;;;;;;;;;;;6.20;99.90;;;;;;5055452;28;19908;-77
2023/04/02 02:28:59;;;;;;;;;;;6.20;99.90;;;;;;5054754;28;19982;-78
2023/04/02 02:31:32;;;;;;;;;;;6.10;99.90;;;;;;5055345;28;19951;-78
2023/04/02 02:34:11;;;;;;;;;;;6.10;99.90;;;;;;5055814;28;20279;-77
2023/04/02 02:36:44;;;;;;;;;;;6.10;99.90;;;;;;5055295;28;19913;-77
2023/04/02 02:39:13;;;;;;;;;;;6.10;99.90;;;;;;5055979;28;19904;-77
2023/04/02 02:41:44;;;;;;;;;;;6.10;99.90;;;;;;5055046;28;20249;-77
2023/04/02 02:44:09;;;;;;;;;;;6.00;99.90;;;;;;5037146;28;20419;-77
2023/04/02 02:46:42;;;;;;;;;;;6.00;99.90;;;;;;5054882;28;19951;-78
2023/04/02 02:49:14;;;;;;;;;;;6.00;99.90;;;;;;5054807;28;19913;-77
2023/04/02 02:51:51;;;;;;;;;;;5.90;99.90;;;;;;5037256;28;19951;-77
2023/04/02 02:54:18;;;;;;;;;;;5.90;99.90;;;;;;5054899;28;20287;-77
2023/04/02 02:56:46;;;;;;;;;;;5.90;99.90;;;;;;5036989;28;19959;-77
2023/04/02 02:59:13;;;;;;;;;;;5.90;99.90;;;;;;5037808;28;20382;-77
2023/04/02 03:01:40;;;;;;;;;;;7.80;99.90;;;;;;5055494;28;19962;-76
2023/04/02 03:04:05;;;;;;;;;;;5.80;99.90;;;;;;5036681;28;19909;-77
2023/04/02 03:06:31;;;;;;;;;;;5.70;99.90;;;;;;5037010;28;20356;-77
2023/04/02 03:08:57;;;;;;;;;;;5.70;99.90;;;;;;5055032;28;19905;-77
2023/04/02 03:11:25;;;;;;;;;;;5.70;99.90;;;;;;5054962;28;19911;-77
2023/04/02 03:13:53;;;;;;;;;;;5.70;99.90;;;;;;5037143;28;19905;-77
2023/04/02 03:16:21;;;;;;;;;;;6.50;99.90;;;;;;5036949;28;19904;-77
2023/04/02 03:19:13;;;;;;;;;;;5.70;99.90;;;;;;5054558;28;19905;-77
2023/04/02 03:21:44;;;;;;;;;;;5.60;99.90;;;;;;5049118;28;19905;-78
2023/04/02 03:24:12;;;;;;;;;;;5.60;99.90;;;;;;5055280;28;19947;-77
2023/04/02 03:26:44;;;;;;;;;;;5.60;99.90;;;;;;5036243;28;20363;-77
2023/04/02 03:29:09;;;;;;;;;;;5.60;99.90;;;;;;5054070;28;19912;-77
2023/04/02 03:31:40;;;;;;;;;;;5.60;99.90;;;;;;5036471;28;19904;-77
2023/04/02 03:34:16;;;;;;;;;;;5.50;99.90;;;;;;5036002;28;19904;-77
2023/04/02 03:37:04;;;;;;;;;;;5.50;99.90;;;;;;5037246;28;20005;-77
2023/04/02 03:39:48;;;;;;;;;;;5.50;99.90;;;;;;5054093;28;19904;-77
2023/04/02 03:42:21;;;;;;;;;;;5.40;99.90;;;;;;5036425;28;19905;-77
2023/04/02 03:44:50;;;;;;;;;;;5.40;99.90;;;;;;5054240;28;19912;-77
2023/04/02 03:47:18;;;;;;;;;;;5.50;99.90;;;;;;5036150;28;19913;-77
2023/04/02 03:50:10;;;;;;;;;;;5.50;99.90;;;;;;5035816;28;20319;-77
2023/04/02 03:52:37;;;;;;;;;;;5.50;99.90;;;;;;5050467;28;20360;-77
2023/04/02 03:55:09;;;;;;;;;;;5.50;99.90;;;;;;5058251;28;19908;-77
2023/04/02 03:57:39;;;;;;;;;;;5.50;99.90;;;;;;5057713;28;20351;-77
2023/04/02 04:00:15;;;;;;;;;;;5.50;99.90;;;;;;5039896;28;19960;-77
2023/04/02 04:02:43;;;;;;;;;;;5.50;99.90;;;;;;5057443;28;19998;-77
2023/04/02 04:05:24;;;;;;;;;;;5.40;99.90;;;;;;5039828;28;19912;-76
2023/04/02 04:07:51;;;;;;;;;;;5.40;99.90;;;;;;5039677;28;19912;-76
2023/04/02 04:10:18;;;;;;;;;;;5.40;99.90;;;;;;5057454;28;19905;-77
2023/04/02 04:12:45;;;;;;;;;;;5.40;99.90;;;;;;5040013;28;19908;-76
2023/04/02 04:15:15;;;;;;;;;;;5.40;99.90;;;;;;5039471;28;20367;-77
2023/04/02 04:17:50;;;;;;;;;;;5.30;99.90;;;;;;5057152;28;19905;-77
2023/04/02 04:20:21;;;;;;;;;;;5.30;99.90;;;;;;5039476;28;19904;-77
2023/04/02 04:22:48;;;;;;;;;;;5.30;99.90;;;;;;5057301;28;19928;-76
2023/04/02 04:25:42;;;;;;;;;;;5.30;99.90;;;;;;5039372;28;19912;-76
2023/04/02 04:28:07;;;;;;;;;;;5.30;99.90;;;;;;5038783;28;19908;-74
2023/04/02 04:30:42;;;;;;;;;;;8.70;99.90;;;;;;5038974;28;19905;-74
2023/04/02 04:33:25;;;;;;;;;;;5.20;99.90;;;;;;5038918;28;19911;-74
2023/04/02 04:36:01;;;;;;;;;;;5.10;99.90;;;;;;5039370;28;20005;-75
2023/04/02 04:38:31;;;;;;;;;;;5.10;99.90;;;;;;5038924;28;19912;-75
2023/04/02 04:41:00;;;;;;;;;;;5.10;99.90;;;;;;5038633;28;20253;-75
2023/04/02 04:43:33;;;;;;;;;;;5.00;99.90;;;;;;5056492;28;20263;-74
2023/04/02 04:46:02;;;;;;;;;;;5.00;99.90;;;;;;5056312;28;19908;-75
2023/04/02 04:48:39;;;;;;;;;;;5.00;99.90;;;;;;5056261;28;19904;-74
2023/04/02 04:51:16;;;;;;;;;;;5.00;99.90;;;;;;5038491;28;20314;-74
2023/04/02 04:53:46;;;;;;;;;;;5.00;99.90;;;;;;5038782;28;19912;-77
2023/04/02 04:56:12;;;;;;;;;;;5.00;99.90;;;;;;5038842;28;20415;-78
2023/04/02 04:58:38;;;;;;;;;;;5.00;99.90;;;;;;5039150;28;19905;-78
2023/04/02 05:01:03;;;;;;;;;;;5.00;99.90;;;;;;5057040;28;19909;-77
2023/04/02 05:03:29;;;;;;;;;;;4.90;99.90;;;;;;5039483;28;19952;-77
2023/04/02 05:06:00;;;;;;;;;;;4.90;99.90;;;;;;5037429;28;19905;-76
2023/04/02 05:08:29;;;;;;;;;;;4.90;99.90;;;;;;5056976;28;20279;-77
2023/04/02 05:11:00;;;;;;;;;;;4.90;99.90;;;;;;5038871;28;20007;-77
2023/04/02 05:13:28;;;;;;;;;;;5.70;99.90;;;;;;5056420;28;19911;-78
2023/04/02 05:16:03;;;;;;;;;;;4.80;99.90;;;;;;5056043;28;19904;-78
2023/04/02 05:18:31;;;;;;;;;;;4.70;99.90;;;;;;5038174;28;20006;-78
2023/04/02 05:21:03;;;;;;;;;;;4.70;99.90;;;;;;5055792;28;19905;-78
2023/04/02 05:23:44;;;;;;;;;;;4.70;99.90;;;;;;5055336;28;19992;-78
2023/04/02 05:26:21;;;;;;;;;;;6.20;99.90;;;;;;5055508;28;20330;-78
2023/04/02 05:28:49;;;;;;;;;;;4.60;99.90;;;;;;5055131;28;20322;-77
2023/04/02 05:31:18;;;;;;;;;;;4.50;99.90;;;;;;5037395;28;19911;-77
2023/04/02 05:33:47;;;;;;;;;;;4.40;99.90;;;;;;5037059;28;19916;-77
2023/04/02 05:36:28;;;;;;;;;;;8.10;99.90;;;;;;5054909;28;19905;-79
2023/04/02 05:38:55;;;;;;;;;;;4.30;99.90;;;;;;5055513;28;19950;-77
2023/04/02 05:41:37;;;;;;;;;;;4.20;99.90;;;;;;5054948;28;20359;-78
2023/04/02 05:44:02;;;;;;;;;;;4.20;99.90;;;;;;5055688;28;20367;-78
2023/04/02 05:46:32;;;;;;;;;;;4.10;99.90;;;;;;5055244;28;19943;-77
2023/04/02 05:48:58;;;;;;;;;;;4.00;99.90;;;;;;5037151;28;20283;-78
2023/04/02 05:51:37;;;;;;;;;;;4.10;99.90;;;;;;5036999;28;20282;-78
2023/04/02 05:54:03;;;;;;;;;;;4.10;99.90;;;;;;5054822;28;19909;-78
2023/04/02 05:56:30;;;;;;;;;;;4.10;99.90;;;;;;5054816;28;20372;-77
2023/04/02 05:59:15;;;;;;;;;;;4.10;99.90;;;;;;5054788;28;19904;-78
2023/04/02 06:02:03;;;;;;;;;;;4.00;99.90;;;;;;5055196;28;19995;-77
2023/04/02 06:04:46;;;;;;;;;;;3.90;99.90;;;;;;5054782;28;19909;-78
2023/04/02 06:07:16;;;;;;;;;;;3.90;99.90;;;;;;5054805;28;20373;-77
2023/04/02 06:09:48;;;;;;;;;;;3.90;99.90;;;;;;5036877;28;19927;-78
2023/04/02 06:12:52;;;;;;;;;;;3.80;99.90;;;;;;5054419;28;19905;-78
2023/04/02 06:15:20;;;;;;;;;;;3.80;99.90;;;;;;4957596;28;20373;-78
2023/04/02 06:17:57;;;;;;;;;;;5.10;99.90;;;;;;4973661;28;20468;-78
2023/04/02 06:20:23;;;;;;;;;;;3.90;99.90;;;;;;5018854;28;19913;-78
2023/04/02 06:23:18;;;;;;;;;;;3.90;99.90;;;;;;5054221;28;20013;-77
2023/04/02 06:25:47;;;;;;;;;;;3.90;99.90;;;;;;5019838;28;20398;-78
2023/04/02 06:28:23;;;;;;;;;;;4.00;99.90;;;;;;5036395;28;19940;-77
2023/04/02 06:30:50;;;;;;;;;;;4.00;99.90;;;;;;5036216;28;19908;-77
2023/04/02 06:33:16;;;;;;;;;;;4.10;99.90;;;;;;5054211;28;20007;-76
2023/04/02 06:35:42;;;;;;;;;;;4.10;99.90;;;;;;5054494;28;19955;-77
2023/04/02 06:38:15;;;;;;;;;;;4.10;99.90;;;;;;5036201;28;20279;-77
2023/04/02 06:40:42;;;;;;;;;;;4.10;99.90;;;;;;5054284;28;20368;-78
2023/04/02 06:43:31;;;;;;;;;;;4.00;99.90;;;;;;5053789;28;19905;-77
2023/04/02 06:45:59;;;;;;;;;;;4.00;99.90;;;;;;5036210;28;19970;-77
2023/04/02 06:48:25;;;;;;;;;;;4.00;99.90;;;;;;5035723;28;19962;-78
2023/04/02 06:50:57;;;;;;;;;;;4.00;99.90;;;;;;5036097;28;19916;-78
2023/04/02 06:53:25;;;;;;;;;;;4.10;99.90;;;;;;5036235;28;19943;-77
2023/04/02 06:56:02;;;;;;;;;;;4.00;99.90;;;;;;5035552;28;19923;-78
2023/04/02 06:58:28;;;;;;;;;;;4.00;99.90;;;;;;5053655;28;19905;-77
2023/04/02 07:00:53;;;;;;;;;;;3.90;99.90;;;;;;5035703;28;20279;-77
2023/04/02 07:03:24;;;;;;;;;;;3.90;99.90;;;;;;5035658;28;19944;-77
2023/04/02 07:05:52;;;;;;;;;;;3.90;99.90;;;;;;5053568;28;19995;-78
2023/04/02 07:08:18;;;;;;;;;;;3.90;99.90;;;;;;5053316;28;19909;-77
2023/04/02 07:10:43;;;;;;;;;;;3.90;99.90;;;;;;5053337;28;19970;-78
2023/04/02 07:13:13;;;;;;;;;;;4.80;99.90;;;;;;5053468;28;19904;-78
2023/04/02 07:15:39;;;;;;;;;;;3.80;99.90;;;;;;5053755;28;19905;-77
2023/04/02 07:18:05;;;;;;;;;;;3.90;99.90;;;;;;5053541;28;19954;-77
2023/04/02 07:20:32;;;;;;;;;;;3.90;99.90;;;;;;5053708;28;19997;-77
2023/04/02 07:22:58;;;;;;;;;;;6.70;99.90;;;;;;5053423;28;19958;-77
2023/04/02 07:25:24;;;;;;;;;;;4.00;99.90;;;;;;5035566;28;19909;-77
2023/04/02 07:27:50;;;;;;;;;;;3.80;99.90;;;;;;5054258;28;19947;-76
2023/04/02 07:30:16;;;;;;;;;;;6.90;99.90;;;;;;5058731;28;19905;-77
2023/04/02 07:32:41;;;;;;;;;;;4.00;99.90;;;;;;5040675;28;20000;-77
2023/04/02 07:35:08;;;;;;;;;;;4.00;99.90;;;;;;5041043;28;19912;-77
2023/04/02 07:37:34;;;;;;;;;;;4.10;99.90;;;;;;5058758;28;19996;-78
2023/04/02 07:40:00;;;;;;;;;;;4.10;99.90;;;;;;5058543;28;19955;-77
2023/04/02 07:42:25;;;;;;;;;;;4.20;99.90;;;;;;5058235;28;19905;-77
2023/04/02 07:44:51;;;;;;;;;;;4.20;99.90;;;;;;5040502;28;20012;-77
2023/04/02 07:47:16;;;;;;;;;;;4.20;99.90;;;;;;5058487;28;19909;-77
2023/04/02 07:49:42;;;;;;;;;;;4.30;99.90;;;;;;5040416;28;20449;-77
2023/04/02 07:52:08;;;;;;;;;;;4.40;99.90;;;;;;5040349;28;19912;-78
2023/04/02 07:54:34;;;;;;;;;;;4.50;99.90;;;;;;5058225;28;20438;-78
2023/04/02 07:57:00;;;;;;;;;;;6.80;99.90;;;;;;5040312;28;19912;-78
2023/04/02 07:59:25;;;;;;;;;;;4.50;99.90;;;;;;5058319;28;19905;-77
2023/04/02 08:01:51;;;;;;;;;;;4.50;99.90;;;;;;5059013;28;19904;-77
2023/04/02 08:04:18;;;;;;;;;;;4.40;99.90;;;;;;5058779;28;19905;-78
2023/04/02 08:06:44;;;;;;;;;;;4.80;99.90;;;;;;5039880;28;19908;-76
2023/04/02 08:09:10;;;;;;;;;;;4.40;99.90;;;;;;5039850;28;19904;-78
2023/04/02 08:11:35;;;;;;;;;;;7.60;99.90;;;;;;5040177;28;19912;-77
2023/04/02 08:14:01;;;;;;;;;;;4.30;99.90;;;;;;5040403;28;19944;-78
2023/04/02 08:16:26;;;;;;;;;;;4.30;99.90;;;;;;5057798;28;19911;-78
2023/04/02 08:18:52;;;;;;;;;;;6.30;99.90;;;;;;5039702;28;19909;-76
2023/04/02 08:21:17;;;;;;;;;;;4.30;99.90;;;;;;5039455;28;20000;-77
2023/04/02 08:23:43;;;;;;;;;;;4.30;99.90;;;;;;5057663;28;19909;-76
2023/04/02 08:26:08;;;;;;;;;;;4.30;99.90;;;;;;5057648;28;19958;-77
2023/04/02 08:28:34;;;;;;;;;;;4.30;99.90;;;;;;5039830;28;19995;-77
2023/04/02 08:31:00;;;;;;;;;;;4.40;99.90;;;;;;5057421;28;19912;-77
2023/04/02 08:33:25;;;;;;;;;;;4.50;99.90;;;;;;5057359;28;19912;-77
2023/04/02 08:35:51;;;;;;;;;;;4.50;99.90;;;;;;5056994;28;19905;-77
2023/04/02 08:38:17;;;;;;;;;;;4.60;99.90;;;;;;5039584;28;19953;-76
2023/04/02 08:40:44;;;;;;;;;;;4.70;99.90;;;;;;5038886;28;19915;-76
2023/04/02 08:43:27;;;;;;;;;;;4.80;99.90;;;;;;5056655;28;20355;-77
2023/04/02 08:46:02;;;;;;;;;;;4.90;99.90;;;;;;5038638;28;19911;-76
2023/04/02 08:48:30;;;;;;;;;;;5.00;99.90;;;;;;5056193;28;19908;-77
2023/04/02 08:50:57;;;;;;;;;;;5.10;99.90;;;;;;5038473;28;19916;-74
2023/04/02 08:53:28;;;;;;;;;;;5.20;99.90;;;;;;5056449;28;19909;-75
2023/04/02 08:56:04;;;;;;;;;;;5.20;99.90;;;;;;5038281;28;19991;-75
2023/04/02 08:58:38;;;;;;;;;;;5.30;99.90;;;;;;5038349;28;20289;-75
2023/04/02 09:01:09;;;;;;;;;;;5.30;99.90;;;;;;5038357;28;19931;-75
2023/04/02 09:03:38;;;;;;;;;;;5.30;99.90;;;;;;5038322;28;19999;-74
2023/04/02 09:06:06;;;;;;;;;;;5.30;99.90;;;;;;5056003;28;19916;-74
2023/04/02 09:08:32;;;;;;;;;;;5.20;99.90;;;;;;5038703;28;19905;-74
2023/04/02 09:11:16;;;;;;;;;;;6.70;99.90;;;;;;5038020;28;19911;-74
2023/04/02 09:13:45;;;;;;;;;;;5.20;99.90;;;;;;5056434;28;19995;-74
2023/04/02 09:16:15;;;;;;;;;;;5.10;99.90;;;;;;5055854;28;20015;-74
2023/04/02 09:18:41;;;;;;;;;;;5.00;99.90;;;;;;5055478;28;19958;-74
2023/04/02 09:21:27;;;;;;;;;;;5.00;99.90;;;;;;5055804;28;19909;-74
2023/04/02 09:23:53;;;;;;;;;;;4.90;99.90;;;;;;5037801;28;19909;-74
2023/04/02 09:26:22;;;;;;;;;;;5.00;99.90;;;;;;5037361;28;20279;-74
2023/04/02 09:28:51;;;;;;;;;;;5.10;99.90;;;;;;5055960;28;19995;-74
2023/04/02 09:31:20;;;;;;;;;;;5.10;99.90;;;;;;5038052;28;19912;-74
2023/04/02 09:33:49;;;;;;;;;;;5.20;99.90;;;;;;5037482;28;19905;-74
2023/04/02 09:36:30;;;;;;;;;;;5.30;99.90;;;;;;5055326;28;20011;-74
2023/04/02 09:39:15;;;;;;;;;;;5.50;99.90;;;;;;5055192;28;19904;-74
2023/04/02 09:41:41;;;;;;;;;;;5.50;99.90;;;;;;5055466;28;19912;-73
2023/04/02 09:44:25;;;;;;;;;;;5.40;99.90;;;;;;5055610;28;19912;-73
2023/04/02 09:47:02;;;;;;;;;;;5.20;99.90;;;;;;5037536;28;20273;-74
2023/04/02 09:49:29;;;;;;;;;;;5.00;99.90;;;;;;5055477;28;19947;-74
2023/04/02 09:52:14;;;;;;;;;;;5.00;99.90;;;;;;5054261;28;19905;-75
2023/04/02 09:54:42;;;;;;;;;;;4.90;99.90;;;;;;5055850;28;19905;-74
2023/04/02 09:57:22;;;;;;;;;;;5.00;99.90;;;;;;5054679;28;19905;-74
2023/04/02 10:00:06;;;;;;;;;;;5.10;99.90;;;;;;5037382;28;20000;-74
2023/04/02 10:02:32;;;;;;;;;;;5.30;99.90;;;;;;5037036;28;20412;-74
2023/04/02 10:05:02;;;;;;;;;;;5.70;99.90;;;;;;5037152;28;19904;-74
2023/04/02 10:07:28;;;;;;;;;;;6.10;99.90;;;;;;5036884;28;19916;-74
2023/04/02 10:09:57;;;;;;;;;;;6.60;99.90;;;;;;5055082;28;20419;-74
2023/04/02 10:12:23;;;;;;;;;;;6.80;99.90;;;;;;5037077;28;19909;-74
2023/04/02 10:14:49;;;;;;;;;;;8.80;99.90;;;;;;5054998;28;19999;-76
2023/04/02 10:17:19;;;;;;;;;;;7.30;99.90;;;;;;5036833;28;20042;-77
2023/04/02 10:19:51;;;;;;;;;;;7.50;99.90;;;;;;5054860;28;19905;-77
2023/04/02 10:22:18;;;;;;;;;;;7.70;99.90;;;;;;5037222;28;19995;-77
2023/04/02 10:24:43;;;;;;;;;;;7.70;99.90;;;;;;5036829;28;20012;-77
2023/04/02 10:27:16;;;;;;;;;;;8.10;99.90;;;;;;5036568;28;19959;-77
2023/04/02 10:30:04;;;;;;;;;;;7.70;99.90;;;;;;5054673;28;19943;-77
2023/04/02 10:32:30;;;;;;;;;;;7.80;99.90;;;;;;5055220;28;19912;-76
2023/04/02 10:35:07;;;;;;;;;;;7.80;99.90;;;;;;5054816;28;20275;-77
2023/04/02 10:37:48;;;;;;;;;;;7.90;99.90;;;;;;5037052;28;20364;-77
2023/04/02 10:40:16;;;;;;;;;;;8.10;99.90;;;;;;5055001;28;19905;-77
2023/04/02 10:42:54;;;;;;;;;;;8.30;99.90;;;;;;5054640;28;19908;-77
2023/04/02 10:45:38;;;;;;;;;;;8.30;99.90;;;;;;5036662;28;20352;-77
2023/04/02 10:48:24;;;;;;;;;;;8.30;99.90;;;;;;5054321;28;20011;-77
2023/04/02 10:50:52;;;;;;;;;;;8.40;99.90;;;;;;5013950;28;20375;-76
2023/04/02 10:53:20;;;;;;;;;;;8.60;99.90;;;;;;5054407;28;19963;-77
2023/04/02 10:55:51;;;;;;;;;;;8.70;99.90;;;;;;5054251;28;19987;-77
2023/04/02 10:58:27;;;;;;;;;;;8.80;99.90;;;;;;5055029;28;19912;-77
2023/04/02 11:00:57;;;;;;;;;;;8.90;99.90;;;;;;5054126;28;20478;-77
2023/04/02 11:03:27;;;;;;;;;;;9.10;99.90;;;;;;5054374;28;20342;-77
2023/04/02 11:05:54;;;;;;;;;;;9.20;99.90;;;;;;5036572;28;19914;-77
2023/04/02 11:08:22;;;;;;;;;;;9.30;99.90;;;;;;5054653;28;20007;-75
2023/04/02 11:10:54;;;;;;;;;;;9.40;99.90;;;;;;5054218;28;19912;-76
2023/04/02 11:13:25;;;;;;;;;;;9.40;99.90;;;;;;5055222;28;19943;-77
2023/04/02 11:15:52;;;;;;;;;;;9.50;99.90;;;;;;5054401;28;19905;-77
2023/04/02 11:18:20;;;;;;;;;;;9.60;99.90;;;;;;5035955;28;20020;-77
2023/04/02 11:20:56;;;;;;;;;;;9.60;99.90;;;;;;5036149;28;19912;-77
2023/04/02 11:23:21;;;;;;;;;;;9.70;99.90;;;;;;5053969;28;19927;-77
2023/04/02 11:25:47;;;;;;;;;;;9.90;99.90;;;;;;5035919;28;19905;-77
2023/04/02 11:28:26;;;;;;;;;;;10.10;99.90;;;;;;5036016;28;19955;-78
2023/04/02 11:30:51;;;;;;;;;;;10.20;99.90;;;;;;5054367;28;19911;-77
2023/04/02 11:33:25;;;;;;;;;;;10.30;99.90;;;;;;5054335;28;20003;-77
2023/04/02 11:35:50;;;;;;;;;;;10.50;99.90;;;;;;5052973;28;19937;-77
2023/04/02 11:38:22;;;;;;;;;;;10.70;99.90;;;;;;5053976;28;19905;-80
2023/04/02 11:40:51;;;;;;;;;;;10.90;99.90;;;;;;5036949;28;19944;-78
2023/04/02 11:43:32;;;;;;;;;;;11.00;99.90;;;;;;5054864;28;19905;-78
2023/04/02 11:46:04;;;;;;;;;;;11.10;99.90;;;;;;5036157;28;19905;-78
2023/04/02 11:48:32;;;;;;;;;;;10.90;99.90;;;;;;5035932;28;19915;-77
2023/04/02 11:50:57;;;;;;;;;;;11.00;99.90;;;;;;5054183;28;19988;-78
2023/04/02 11:53:31;;;;;;;;;;;11.10;99.90;;;;;;5036291;28;19944;-78
2023/04/02 11:56:00;;;;;;;;;;;11.20;99.90;;;;;;5036043;28;20378;-78
2023/04/02 11:58:50;;;;;;;;;;;11.30;99.90;;;;;;5036038;28;19912;-78
2023/04/02 12:01:22;;;;;;;;;;;11.50;99.90;;;;;;5036501;28;19987;-77
2023/04/02 12:04:06;;;;;;;;;;;11.60;99.90;;;;;;5035858;28;19909;-77
2023/04/02 12:06:50;;;;;;;;;;;11.70;99.90;;;;;;5053390;28;19960;-77
2023/04/02 12:09:23;;;;;;;;;;;11.90;99.90;;;;;;5053372;28;20363;-76
2023/04/02 12:12:12;;;;;;;;;;;11.90;99.90;;;;;;5053233;28;19909;-77
2023/04/02 12:14:46;;;;;;;;;;;12.00;99.90;;;;;;5045246;28;19955;-78
2023/04/02 12:17:17;;;;;;;;;;;12.10;99.90;;;;;;5039709;28;19904;-78
2023/04/02 12:20:08;;;;;;;;;;;12.30;99.90;;;;;;5057755;28;19908;-78
2023/04/02 12:22:38;;;;;;;;;;;12.40;99.50;;;;;;5026966;28;19905;-80
2023/04/02 12:25:22;;;;;;;;;;;12.60;99.80;;;;;;5057587;28;20388;-78
2023/04/02 12:28:01;;;;;;;;;;;12.60;98.70;;;;;;5057396;28;19915;-75
2023/04/02 12:30:27;;;;;;;;;;;12.80;99.00;;;;;;5056478;28;19905;-76
2023/04/02 12:32:55;;;;;;;;;;;12.90;98.20;;;;;;5038414;28;19905;-75
2023/04/02 12:35:29;;;;;;;;;;;12.90;97.90;;;;;;5056080;28;20011;-74
2023/04/02 12:37:55;;;;;;;;;;;13.10;97.00;;;;;;5038371;28;19908;-75
2023/04/02 12:40:21;;;;;;;;;;;13.10;95.70;;;;;;5056722;28;20268;-75
2023/04/02 12:42:47;;;;;;;;;;;13.10;96.90;;;;;;5056032;28;19905;-75
2023/04/02 12:45:26;;;;;;;;;;;13.30;96.80;;;;;;5038054;28;19909;-75
2023/04/02 12:47:52;;;;;;;;;;;13.50;94.80;;;;;;5055639;28;19909;-75
2023/04/02 12:50:18;;;;;;;;;;;13.50;94.10;;;;;;5037962;28;19920;-75
2023/04/02 12:52:45;;;;;;;;;;;13.40;92.90;;;;;;5037907;28;19905;-76
2023/04/02 12:55:17;;;;;;;;;;;13.40;94.20;;;;;;5055954;28;20391;-76
2023/04/02 12:57:47;;;;;;;;;;;13.30;93.70;;;;;;5055858;28;19916;-76
2023/04/02 13:00:19;;;;;;;;;;;13.10;93.30;;;;;;5037780;28;19995;-75
2023/04/02 13:02:49;;;;;;;;;;;13.20;95.10;;;;;;5037743;28;20371;-75
2023/04/02 13:05:34;;;;;;;;;;;13.50;96.10;;;;;;5055564;28;19958;-75
2023/04/02 13:08:00;;;;;;;;;;;13.70;94.40;;;;;;5037426;28;20264;-76
2023/04/02 13:10:26;;;;;;;;;;;13.90;92.10;;;;;;5055353;28;19905;-75
2023/04/02 13:12:56;;;;;;;;;;;13.90;92.40;;;;;;5037502;28;19911;-75
2023/04/02 13:15:23;;;;;;;;;;;14.20;93.40;;;;;;5055399;28;20304;-75
2023/04/02 13:18:02;;;;;;;;;;;14.30;92.00;;;;;;5037268;28;19905;-75
2023/04/02 13:20:40;;;;;;;;;;;14.40;90.20;;;;;;5055387;28;19970;-74
2023/04/02 13:23:41;;;;;;;;;;;14.40;91.40;;;;;;5055168;28;19927;-74
2023/04/02 13:26:36;;;;;;;;;;;14.50;91.20;;;;;;4957109;28;19910;-74
2023/04/02 13:29:03;;;;;;;;;;;14.70;91.40;;;;;;5045443;28;20372;-74
2023/04/02 13:31:29;;;;;;;;;;;14.70;90.50;;;;;;5055169;28;20382;-74
2023/04/02 13:33:55;;;;;;;;;;;14.90;91.50;;;;;;5055060;28;19911;-75
2023/04/02 13:36:20;;;;;;;;;;;15.10;88.20;;;;;;5054896;28;20002;-74
2023/04/02 13:38:46;;;;;;;;;;;15.10;88.20;;;;;;5037742;28;20431;-75
2023/04/02 13:41:38;;;;;;;;;;;15.30;90.10;;;;;;5055592;28;19996;-75
2023/04/02 13:44:03;;;;;;;;;;;15.70;88.80;;;;;;5033022;28;20314;-75
2023/04/02 13:46:30;;;;;;;;;;;15.90;87.40;;;;;;5036988;28;19959;-75
2023/04/02 13:48:56;;;;;;;;;;;16.00;83.90;;;;;;5054715;28;19912;-74
2023/04/02 13:51:31;;;;;;;;;;;16.20;84.60;;;;;;5036806;28;19979;-75
2023/04/02 13:53:57;;;;;;;;;;;16.20;81.20;;;;;;5054923;28;20390;-75
2023/04/02 13:56:23;;;;;;;;;;;16.30;79.80;;;;;;5036906;28;19908;-75
2023/04/02 13:58:50;;;;;;;;;;;16.40;79.80;;;;;;5054642;28;19968;-75
2023/04/02 14:01:16;;;;;;;;;;;16.30;78.70;;;;;;5054397;28;19904;-75
2023/04/02 14:03:41;;;;;;;;;;;16.10;79.30;;;;;;5054474;28;19943;-75
2023/04/02 14:06:25;;;;;;;;;;;16.10;81.80;;;;;;5054257;28;19955;-75
2023/04/02 14:09:01;;;;;;;;;;;16.10;80.10;;;;;;5054499;28;20294;-75
2023/04/02 14:11:46;;;;;;;;;;;16.10;78.20;;;;;;5054252;28;19905;-75
2023/04/02 14:14:14;;;;;;;;;;;16.00;77.10;;;;;;5054043;28;19905;-75
2023/04/02 14:16:55;;;;;;;;;;;16.10;79.30;;;;;;5036182;28;19904;-75
2023/04/02 14:19:27;;;;;;;;;;;16.20;77.70;;;;;;5053977;28;20279;-75
2023/04/02 14:22:03;;;;;;;;;;;16.20;77.30;;;;;;5054498;28;19915;-75
2023/04/02 14:24:43;;;;;;;;;;;16.30;76.50;;;;;;5036212;28;19911;-75
2023/04/02 14:27:28;;;;;;;;;;;16.30;76.80;;;;;;5036609;28;19916;-77
2023/04/02 14:30:11;;;;;;;;;;;16.50;75.70;;;;;;5037074;28;19944;-75
2023/04/02 14:32:57;;;;;;;;;;;16.90;74.20;;;;;;5055083;28;20249;-75
2023/04/02 14:35:45;;;;;;;;;;;17.10;69.80;;;;;;5036175;28;19909;-75
2023/04/02 14:38:15;;;;;;;;;;;17.40;70.60;;;;;;5035612;28;19905;-75
2023/04/02 14:40:41;;;;;;;;;;;17.90;68.90;;;;;;5056407;28;20424;-78
2023/04/02 14:43:23;;;;;;;;;;;18.20;66.60;;;;;;5055863;28;19944;-78
2023/04/02 14:45:56;;;;;;;;;;;18.40;65.30;;;;;;5056712;28;19905;-78
2023/04/02 14:48:21;;;;;;;;;;;18.90;64.60;;;;;;5037833;28;19908;-78
2023/04/02 14:50:47;;;;;;;;;;;19.30;63.40;;;;;;5037834;28;19909;-78